Beland, Oklahoma
Current Conditions -  °F | °C
As of 4:53 AM on Friday 31 Oct 2014 (Local Time) from KMKO Reporting Station
Light Rain Light Rain  
Wind Chill: 51°   Ceiling: Unl
Heat Index: 51°   Visibility: 10mi
Dew Point: 41°   Wind: 15mph
Humidity: 68%   Direction: 350°N
Pressure: 30.24"   Gusts: NA
Location:  35.6818°N, 95.3578°W
Report Text: KMKO 310953Z AUTO 35013KT 10SM -RA CLR 11/05 A3024 RMK AO2 RAB24 SLP238 P0000 T01060050
Loading
Personal Weather Stations






























Interactive Weather Map
Tropical Storm Tracking
New forecast layout! Learn more

10-Day Weather Forecast

Advertisements
Track Severe Weather on mobile